createdAt,value
2018-09-20T00:00:10.877Z,0.00
2018-09-20T00:01:10.853Z,0.00
2018-09-20T00:02:10.830Z,0.00
2018-09-20T00:03:10.797Z,0.00
2018-09-20T00:04:10.778Z,0.00
2018-09-20T00:05:10.753Z,0.00
2018-09-20T00:06:10.734Z,0.00
2018-09-20T00:07:10.726Z,0.00
2018-09-20T00:08:10.697Z,0.00
2018-09-20T00:09:10.653Z,0.00
2018-09-20T00:10:10.634Z,0.00
2018-09-20T00:11:10.600Z,0.00
2018-09-20T00:12:10.576Z,0.00
2018-09-20T00:13:10.565Z,0.00
2018-09-20T00:14:10.534Z,0.00
2018-09-20T00:15:10.505Z,0.00
2018-09-20T00:16:10.483Z,0.00
2018-09-20T00:17:10.465Z,0.00
2018-09-20T00:18:10.438Z,0.00
2018-09-20T00:19:10.408Z,0.00
2018-09-20T00:20:10.388Z,0.00
2018-09-20T00:21:10.353Z,0.00
2018-09-20T00:22:10.344Z,0.00
2018-09-20T00:23:10.318Z,0.00
2018-09-20T00:24:10.282Z,0.00
2018-09-20T00:25:10.266Z,0.00
2018-09-20T00:26:10.243Z,0.00
2018-09-20T00:27:10.280Z,0.00
2018-09-20T00:28:10.203Z,0.00
2018-09-20T00:29:10.160Z,0.00
2018-09-20T00:30:10.142Z,0.00
2018-09-20T00:31:10.112Z,0.00
2018-09-20T00:32:10.094Z,0.00
2018-09-20T00:33:10.065Z,0.00
2018-09-20T00:34:10.034Z,0.00
2018-09-20T00:35:10.018Z,0.00
2018-09-20T00:36:09.991Z,0.00
2018-09-20T00:37:09.970Z,0.00
2018-09-20T00:38:09.939Z,0.00
2018-09-20T00:39:09.916Z,0.00
2018-09-20T00:40:09.896Z,0.00
2018-09-20T00:41:09.868Z,0.00
2018-09-20T00:42:09.844Z,0.00
2018-09-20T00:43:09.818Z,0.00
2018-09-20T00:44:09.791Z,0.00
2018-09-20T00:45:09.774Z,0.00
2018-09-20T00:46:09.741Z,0.00
2018-09-20T00:47:09.718Z,0.00
2018-09-20T00:48:09.699Z,0.00
2018-09-20T00:49:09.673Z,0.00
2018-09-20T00:50:09.653Z,0.00
2018-09-20T00:51:09.616Z,0.00
2018-09-20T00:52:09.600Z,0.00
2018-09-20T00:53:09.570Z,0.00
2018-09-20T00:54:09.545Z,0.00
2018-09-20T00:55:09.525Z,0.00
2018-09-20T00:56:09.495Z,0.00
2018-09-20T00:57:09.476Z,0.00
2018-09-20T00:58:09.446Z,0.00
2018-09-20T00:59:09.427Z,0.00
2018-09-20T01:00:09.395Z,0.00
2018-09-20T01:01:09.380Z,0.00
2018-09-20T01:02:09.347Z,0.00
2018-09-20T01:03:09.331Z,0.00
2018-09-20T01:04:09.306Z,0.00
2018-09-20T01:05:09.284Z,0.00
2018-09-20T01:06:09.257Z,0.00
2018-09-20T01:07:09.220Z,0.00
2018-09-20T01:08:09.207Z,0.00
2018-09-20T01:09:09.178Z,0.00
2018-09-20T01:10:09.157Z,0.00
2018-09-20T01:11:09.128Z,0.00
2018-09-20T01:12:09.105Z,0.00
2018-09-20T01:13:09.077Z,0.00
2018-09-20T01:14:09.059Z,0.00
2018-09-20T01:15:09.029Z,0.00
2018-09-20T01:16:09.009Z,0.00
2018-09-20T01:17:08.977Z,0.00
2018-09-20T01:18:08.963Z,0.00
2018-09-20T01:19:08.931Z,0.00
2018-09-20T01:20:08.914Z,0.00
2018-09-20T01:21:08.884Z,0.00
2018-09-20T01:22:08.856Z,0.00
2018-09-20T01:23:08.838Z,0.00
2018-09-20T01:24:08.813Z,0.00
2018-09-20T01:25:08.787Z,0.00
2018-09-20T01:26:08.765Z,0.00
2018-09-20T01:27:08.730Z,0.00
2018-09-20T01:28:08.709Z,0.00
2018-09-20T01:29:08.689Z,0.00
2018-09-20T01:30:08.658Z,0.00
2018-09-20T01:31:08.639Z,0.00
2018-09-20T01:32:08.616Z,0.00
2018-09-20T01:33:08.586Z,0.00
2018-09-20T01:34:08.559Z,0.00
2018-09-20T01:35:08.543Z,0.00
2018-09-20T01:36:08.517Z,0.00
2018-09-20T01:37:08.488Z,0.00
2018-09-20T01:38:08.473Z,0.00
2018-09-20T01:39:08.438Z,0.00
2018-09-20T01:40:08.412Z,0.00
2018-09-20T01:41:08.391Z,0.00
2018-09-20T01:42:08.367Z,0.00
2018-09-20T01:43:08.338Z,0.00
2018-09-20T01:44:08.313Z,0.00
2018-09-20T01:45:08.297Z,0.00
2018-09-20T01:46:08.265Z,0.00
2018-09-20T01:47:08.249Z,0.00
2018-09-20T01:48:08.220Z,0.00
2018-09-20T01:49:08.189Z,0.00
2018-09-20T01:50:08.172Z,0.00
2018-09-20T01:51:08.147Z,0.00
2018-09-20T01:52:08.117Z,0.00
2018-09-20T01:53:08.094Z,0.00
2018-09-20T01:54:08.063Z,0.00
2018-09-20T01:55:08.049Z,0.00
2018-09-20T01:56:08.012Z,0.00
2018-09-20T01:57:08.001Z,0.00
2018-09-20T01:58:07.967Z,0.00
2018-09-20T01:59:07.937Z,0.00
2018-09-20T02:00:07.924Z,0.00
2018-09-20T02:01:07.892Z,0.00
2018-09-20T02:02:07.873Z,0.00
2018-09-20T02:03:07.845Z,0.00
2018-09-20T02:04:07.817Z,0.00
2018-09-20T02:05:07.809Z,0.00
2018-09-20T02:06:07.776Z,0.00
2018-09-20T02:07:07.742Z,0.00
2018-09-20T02:08:07.723Z,0.00
2018-09-20T02:09:07.697Z,0.00
2018-09-20T02:10:07.669Z,0.00
2018-09-20T02:11:07.648Z,0.00
2018-09-20T02:12:07.622Z,0.00
2018-09-20T02:13:07.606Z,0.00
2018-09-20T02:14:07.571Z,0.00
2018-09-20T02:15:07.556Z,0.00
2018-09-20T02:16:07.525Z,0.00
2018-09-20T02:17:07.501Z,0.00
2018-09-20T02:18:07.475Z,0.00
2018-09-20T02:19:07.445Z,0.00
2018-09-20T02:20:07.425Z,0.00
2018-09-20T02:21:07.394Z,0.00
2018-09-20T02:22:07.372Z,0.00
2018-09-20T02:23:07.351Z,0.00
2018-09-20T02:24:07.325Z,0.00
2018-09-20T02:25:07.301Z,0.00
2018-09-20T02:26:07.284Z,0.00
2018-09-20T02:27:07.250Z,0.00
2018-09-20T02:28:07.226Z,0.00
2018-09-20T02:29:07.199Z,0.00
2018-09-20T02:30:07.189Z,0.00
2018-09-20T02:31:07.147Z,0.00
2018-09-20T02:32:07.131Z,0.00
2018-09-20T02:33:07.097Z,0.00
2018-09-20T02:34:07.074Z,0.00
2018-09-20T02:35:07.055Z,0.00
2018-09-20T02:36:07.024Z,0.00
2018-09-20T02:37:07.006Z,0.00
2018-09-20T02:38:06.980Z,0.00
2018-09-20T02:39:06.955Z,0.00
2018-09-20T02:40:06.924Z,0.00
2018-09-20T02:41:06.907Z,0.00
2018-09-20T02:42:06.877Z,0.00
2018-09-20T02:43:06.853Z,0.00
2018-09-20T02:44:06.833Z,0.00
2018-09-20T02:45:06.800Z,0.00
2018-09-20T02:46:06.779Z,0.00
2018-09-20T02:47:06.752Z,0.00
2018-09-20T02:48:06.739Z,0.00
2018-09-20T02:49:06.703Z,0.00
2018-09-20T02:50:06.680Z,0.00
2018-09-20T02:51:06.657Z,0.00
2018-09-20T02:52:06.629Z,0.00
2018-09-20T02:53:06.611Z,0.00
2018-09-20T02:54:06.580Z,0.00
2018-09-20T02:55:06.557Z,0.00
2018-09-20T02:56:06.529Z,0.00
2018-09-20T02:57:06.508Z,0.00
2018-09-20T02:58:06.482Z,0.00
2018-09-20T02:59:06.575Z,0.00
2018-09-20T03:00:06.432Z,0.00
2018-09-20T03:01:06.404Z,0.00
2018-09-20T03:02:06.380Z,0.00
2018-09-20T03:03:06.357Z,0.00
2018-09-20T03:04:06.329Z,0.00
2018-09-20T03:05:06.311Z,0.00
2018-09-20T03:06:06.279Z,0.00
2018-09-20T03:07:06.252Z,0.00
2018-09-20T03:08:06.235Z,0.00
2018-09-20T03:09:06.214Z,0.00
2018-09-20T03:10:06.182Z,0.00
2018-09-20T03:11:06.154Z,0.00
2018-09-20T03:12:06.126Z,0.00
2018-09-20T03:13:06.111Z,0.00
2018-09-20T03:14:06.087Z,0.00
2018-09-20T03:15:06.057Z,0.00
2018-09-20T03:16:06.037Z,0.00
2018-09-20T03:17:06.009Z,0.00
2018-09-20T03:18:05.980Z,0.00
2018-09-20T03:19:05.960Z,0.00
2018-09-20T03:20:05.930Z,0.00
2018-09-20T03:21:05.912Z,0.00
2018-09-20T03:22:05.881Z,0.00
2018-09-20T03:23:05.852Z,0.00
2018-09-20T03:24:05.854Z,0.00
2018-09-20T03:25:05.809Z,0.00
2018-09-20T03:26:05.787Z,0.00
2018-09-20T03:27:05.754Z,0.00
2018-09-20T03:28:05.731Z,0.00
2018-09-20T03:29:05.710Z,0.00
2018-09-20T03:30:05.679Z,0.00
2018-09-20T03:31:05.664Z,0.00
2018-09-20T03:32:05.633Z,0.00
2018-09-20T03:33:05.607Z,0.00
2018-09-20T03:34:05.588Z,0.00
2018-09-20T03:35:05.559Z,0.00
2018-09-20T03:36:05.537Z,0.00
2018-09-20T03:37:05.504Z,0.00
2018-09-20T03:38:05.484Z,0.00
2018-09-20T03:39:05.466Z,0.00
2018-09-20T03:40:05.434Z,0.00
2018-09-20T03:41:05.407Z,0.00
2018-09-20T03:42:05.385Z,0.00
2018-09-20T03:43:05.356Z,0.00
2018-09-20T03:44:05.334Z,0.00
2018-09-20T03:45:05.309Z,0.00
2018-09-20T03:46:05.284Z,0.00
2018-09-20T03:47:05.262Z,0.00
2018-09-20T03:48:05.232Z,0.00
2018-09-20T03:49:05.223Z,0.00
2018-09-20T03:50:05.180Z,0.00
2018-09-20T03:51:05.156Z,0.00
2018-09-20T03:52:05.132Z,0.00
2018-09-20T03:53:05.119Z,0.00
2018-09-20T03:54:05.093Z,0.00
2018-09-20T03:55:05.054Z,0.00
2018-09-20T03:56:05.041Z,0.00
2018-09-20T03:57:05.010Z,0.00
2018-09-20T03:58:04.986Z,0.00
2018-09-20T03:59:04.960Z,0.00
2018-09-20T04:00:04.934Z,0.00
2018-09-20T04:01:04.910Z,0.00
2018-09-20T04:02:04.890Z,0.00
2018-09-20T04:03:04.855Z,0.00
2018-09-20T04:04:04.837Z,0.00
2018-09-20T04:05:04.808Z,0.00
2018-09-20T04:06:04.788Z,0.00
2018-09-20T04:07:04.760Z,0.00
2018-09-20T04:08:04.737Z,0.00
2018-09-20T04:09:04.707Z,0.00
2018-09-20T04:10:04.684Z,0.00
2018-09-20T04:11:04.662Z,0.00
2018-09-20T04:12:04.643Z,0.00
2018-09-20T04:13:04.615Z,0.00
2018-09-20T04:14:04.587Z,0.00
2018-09-20T04:15:04.568Z,0.00
2018-09-20T04:16:04.543Z,0.00
2018-09-20T04:17:04.506Z,0.00
2018-09-20T04:18:04.483Z,0.00
2018-09-20T04:19:04.461Z,0.00
2018-09-20T04:20:04.431Z,0.00
2018-09-20T04:21:04.435Z,0.00
2018-09-20T04:22:04.398Z,0.00
2018-09-20T04:23:04.366Z,0.00
2018-09-20T04:24:04.343Z,0.00
2018-09-20T04:25:04.310Z,0.00
2018-09-20T04:26:04.283Z,0.00
2018-09-20T04:27:04.305Z,0.00
2018-09-20T04:28:04.237Z,0.00
2018-09-20T04:29:04.211Z,0.00
2018-09-20T04:30:04.183Z,0.00
2018-09-20T04:31:04.160Z,0.00
2018-09-20T04:32:04.142Z,0.00
2018-09-20T04:33:04.105Z,0.00
2018-09-20T04:34:04.085Z,0.00
2018-09-20T04:35:04.057Z,0.00
2018-09-20T04:36:04.034Z,0.00
2018-09-20T04:37:04.014Z,0.00
2018-09-20T04:38:03.991Z,0.00
2018-09-20T04:39:03.960Z,0.00
2018-09-20T04:40:03.941Z,0.00
2018-09-20T04:41:03.911Z,0.00
2018-09-20T04:42:03.881Z,0.00
2018-09-20T04:43:03.865Z,0.00
2018-09-20T04:44:03.831Z,0.00
2018-09-20T04:45:03.813Z,0.00
2018-09-20T04:46:03.785Z,0.00
2018-09-20T04:47:03.766Z,0.00
2018-09-20T04:48:03.735Z,0.00
2018-09-20T04:49:03.707Z,0.00
2018-09-20T04:50:03.688Z,0.00
2018-09-20T04:51:03.654Z,4.00
2018-09-20T04:52:03.635Z,4.00
2018-09-20T04:53:03.612Z,0.00
2018-09-20T04:54:03.582Z,4.00
2018-09-20T04:55:03.558Z,4.00
2018-09-20T04:56:03.535Z,4.00
2018-09-20T04:57:03.506Z,4.00
2018-09-20T04:58:03.488Z,4.00
2018-09-20T04:59:03.458Z,8.00
2018-09-20T05:00:03.506Z,8.00
2018-09-20T05:01:03.412Z,8.00
2018-09-20T05:02:03.390Z,12.00
2018-09-20T05:03:03.356Z,12.00
2018-09-20T05:04:03.337Z,12.00
2018-09-20T05:05:03.308Z,16.00
2018-09-20T05:06:03.285Z,16.00
2018-09-20T05:07:03.262Z,20.00
2018-09-20T05:08:03.232Z,24.00
2018-09-20T05:09:03.214Z,28.00
2018-09-20T05:10:03.185Z,28.00
2018-09-20T05:11:03.159Z,36.00
2018-09-20T05:12:03.135Z,40.00
2018-09-20T05:13:03.111Z,44.00
2018-09-20T05:14:03.087Z,48.00
2018-09-20T05:15:03.128Z,52.00
2018-09-20T05:16:03.033Z,56.00
2018-09-20T05:17:03.013Z,68.00
2018-09-20T05:18:02.992Z,72.00
2018-09-20T05:19:02.956Z,76.00
2018-09-20T05:20:02.938Z,84.00
2018-09-20T05:21:02.909Z,88.00
2018-09-20T05:22:02.890Z,92.00
2018-09-20T05:23:02.880Z,100.00
2018-09-20T05:24:02.838Z,108.00
2018-09-20T05:25:02.808Z,116.00
2018-09-20T05:26:02.795Z,128.00
2018-09-20T05:27:02.764Z,136.00
2018-09-20T05:28:02.746Z,144.00
2018-09-20T05:29:02.709Z,156.00
2018-09-20T05:30:02.678Z,164.00
2018-09-20T05:31:02.664Z,176.00
2018-09-20T05:32:02.634Z,184.00
2018-09-20T05:33:02.611Z,192.00
2018-09-20T05:34:02.579Z,200.00
2018-09-20T05:35:02.561Z,212.00
2018-09-20T05:36:02.528Z,216.00
2018-09-20T05:37:02.516Z,224.00
2018-09-20T05:38:02.495Z,228.00
2018-09-20T05:39:02.452Z,236.00
2018-09-20T05:40:02.438Z,240.00
2018-09-20T05:41:02.406Z,248.00
2018-09-20T05:42:02.380Z,256.00
2018-09-20T05:43:02.355Z,260.00
2018-09-20T05:44:02.337Z,268.00
2018-09-20T05:45:02.303Z,276.00
2018-09-20T05:46:02.287Z,284.00
2018-09-20T05:47:02.253Z,288.00
2018-09-20T05:48:02.230Z,292.00
2018-09-20T05:49:02.202Z,300.00
2018-09-20T05:50:02.191Z,304.00
2018-09-20T05:51:02.152Z,308.00
2018-09-20T05:52:02.138Z,312.00
2018-09-20T05:53:02.113Z,312.00
2018-09-20T05:54:02.078Z,316.00
2018-09-20T05:55:02.061Z,320.00
2018-09-20T05:56:02.029Z,324.00
2018-09-20T05:57:02.011Z,328.00
2018-09-20T05:58:01.987Z,332.00
2018-09-20T05:59:01.956Z,340.00
2018-09-20T06:00:01.947Z,348.00
2018-09-20T06:01:01.904Z,356.00
2018-09-20T06:02:01.894Z,360.00
2018-09-20T06:03:01.859Z,376.00
2018-09-20T06:04:01.827Z,384.00
2018-09-20T06:05:01.808Z,400.00
2018-09-20T06:06:01.783Z,420.00
2018-09-20T06:07:01.758Z,436.00
2018-09-20T06:08:01.724Z,448.00
2018-09-20T06:09:01.712Z,460.00
2018-09-20T06:10:01.689Z,468.00
2018-09-20T06:11:01.652Z,476.00
2018-09-20T06:12:01.643Z,488.00
2018-09-20T06:13:01.607Z,488.00
2018-09-20T06:14:01.583Z,496.00
2018-09-20T06:15:01.554Z,496.00
2018-09-20T06:16:01.534Z,500.00
2018-09-20T06:17:01.511Z,500.00
2018-09-20T06:18:01.479Z,504.00
2018-09-20T06:19:01.457Z,504.00
2018-09-20T06:20:01.428Z,504.00
2018-09-20T06:21:01.406Z,504.00
2018-09-20T06:22:01.388Z,512.00
2018-09-20T06:23:01.350Z,524.00
2018-09-20T06:24:01.335Z,536.00
2018-09-20T06:25:01.301Z,548.00
2018-09-20T06:26:01.279Z,560.00
2018-09-20T06:27:01.262Z,572.00
2018-09-20T06:28:01.232Z,584.00
2018-09-20T06:29:01.210Z,592.00
2018-09-20T06:30:01.190Z,604.00
2018-09-20T06:31:01.151Z,608.00
2018-09-20T06:32:01.135Z,612.00
2018-09-20T06:33:01.109Z,620.00
2018-09-20T06:34:01.079Z,632.00
2018-09-20T06:35:01.128Z,640.00
2018-09-20T06:36:01.031Z,652.00
2018-09-20T06:37:01.055Z,664.00
2018-09-20T06:38:00.985Z,672.00
2018-09-20T06:39:00.952Z,684.00
2018-09-20T06:40:00.967Z,696.00
2018-09-20T06:41:00.977Z,704.00
2018-09-20T06:42:00.877Z,708.00
2018-09-20T06:43:00.859Z,716.00
2018-09-20T06:44:00.829Z,728.00
2018-09-20T06:45:00.816Z,732.00
2018-09-20T06:46:00.778Z,740.00
2018-09-20T06:47:00.754Z,744.00
2018-09-20T06:48:00.736Z,752.00
2018-09-20T06:49:00.707Z,760.00
2018-09-20T06:50:00.691Z,764.00
2018-09-20T06:51:00.651Z,772.00
2018-09-20T06:52:00.630Z,776.00
2018-09-20T06:53:00.602Z,784.00
2018-09-20T06:54:00.583Z,784.00
2018-09-20T06:55:00.565Z,792.00
2018-09-20T06:56:00.535Z,800.00
2018-09-20T06:57:00.505Z,808.00
2018-09-20T06:58:00.487Z,812.00
2018-09-20T06:59:00.461Z,820.00
2018-09-20T07:00:00.430Z,828.00
2018-09-20T07:01:00.411Z,828.00
2018-09-20T07:02:00.386Z,836.00
2018-09-20T07:03:00.424Z,844.00
2018-09-20T07:04:00.339Z,848.00
2018-09-20T07:05:00.303Z,852.00
2018-09-20T07:06:00.281Z,856.00
2018-09-20T07:07:00.262Z,860.00
2018-09-20T07:08:00.230Z,864.00
2018-09-20T07:09:00.206Z,868.00
2018-09-20T07:10:00.187Z,872.00
2018-09-20T07:11:00.157Z,876.00
2018-09-20T07:12:00.134Z,884.00
2018-09-20T07:13:00.115Z,888.00
2018-09-20T07:14:00.084Z,896.00
2018-09-20T07:15:00.080Z,904.00
2018-09-20T07:16:00.033Z,912.00
2018-09-20T07:17:00.012Z,916.00
2018-09-20T07:17:59.984Z,928.00
2018-09-20T07:19:00.011Z,932.00
2018-09-20T07:19:59.933Z,944.00
2018-09-20T07:20:59.916Z,948.00
2018-09-20T07:21:59.892Z,960.00
2018-09-20T07:22:59.864Z,964.00
2018-09-20T07:23:59.833Z,992.00
2018-09-20T07:24:59.828Z,1008.00
2018-09-20T07:25:59.790Z,992.00
2018-09-20T07:26:59.767Z,988.00
2018-09-20T07:27:59.738Z,996.00
2018-09-20T07:28:59.708Z,1004.00
2018-09-20T07:29:59.691Z,1008.00
2018-09-20T07:30:59.665Z,1008.00
2018-09-20T07:31:59.632Z,1016.00
2018-09-20T07:32:59.618Z,1016.00
2018-09-20T07:33:59.592Z,1020.00
2018-09-20T07:34:59.560Z,1020.00
2018-09-20T07:35:59.550Z,1020.00
2018-09-20T07:36:59.519Z,1032.00
2018-09-20T07:37:59.496Z,1028.00
2018-09-20T07:38:59.494Z,1036.00
2018-09-20T07:39:59.500Z,1032.00
2018-09-20T07:40:59.417Z,1048.00
2018-09-20T07:41:59.396Z,1032.00
2018-09-20T07:42:59.362Z,1036.00
2018-09-20T07:43:59.342Z,1044.00
2018-09-20T07:44:59.318Z,1060.00
2018-09-20T07:45:59.301Z,1068.00
2018-09-20T07:46:59.270Z,1076.00
2018-09-20T07:47:59.237Z,1100.00
2018-09-20T07:48:59.220Z,1100.00
2018-09-20T07:49:59.194Z,1112.00
2018-09-20T07:50:59.172Z,1144.00
2018-09-20T07:51:59.143Z,1148.00
2018-09-20T07:52:59.118Z,1160.00
2018-09-20T07:53:59.090Z,1176.00
2018-09-20T07:54:59.071Z,1180.00
2018-09-20T07:55:59.045Z,1192.00
2018-09-20T07:56:59.020Z,1232.00
2018-09-20T07:57:58.999Z,1188.00
2018-09-20T07:58:58.966Z,1172.00
2018-09-20T07:59:58.948Z,1160.00
2018-09-20T08:00:58.918Z,1160.00
2018-09-20T08:01:58.964Z,1148.00
2018-09-20T08:02:58.878Z,1132.00
2018-09-20T08:03:58.841Z,1116.00
2018-09-20T08:04:58.826Z,1080.00
2018-09-20T08:05:58.807Z,1108.00
2018-09-20T08:06:58.785Z,1140.00
2018-09-20T08:07:58.751Z,1168.00
2018-09-20T08:08:58.721Z,1188.00
2018-09-20T08:09:58.696Z,1296.00
2018-09-20T08:10:58.681Z,1212.00
2018-09-20T08:11:58.654Z,1248.00
2018-09-20T08:12:58.665Z,1312.00
2018-09-20T08:13:58.595Z,1412.00
2018-09-20T08:14:58.581Z,1476.00
2018-09-20T08:15:58.551Z,1352.00
2018-09-20T08:16:58.527Z,1180.00
2018-09-20T08:17:58.506Z,1236.00
2018-09-20T08:18:58.487Z,1192.00
2018-09-20T08:19:58.460Z,1148.00
2018-09-20T08:20:58.434Z,1140.00
2018-09-20T08:21:58.399Z,1164.00
2018-09-20T08:22:58.385Z,1072.00
2018-09-20T08:23:58.357Z,996.00
2018-09-20T08:24:58.331Z,960.00
2018-09-20T08:25:58.305Z,944.00
2018-09-20T08:26:58.280Z,924.00
2018-09-20T08:27:58.330Z,940.00
2018-09-20T08:28:58.231Z,884.00
2018-09-20T08:29:58.217Z,884.00
2018-09-20T08:30:58.180Z,856.00
2018-09-20T08:31:58.162Z,876.00
2018-09-20T08:32:58.131Z,888.00
2018-09-20T08:33:58.109Z,900.00
2018-09-20T08:34:58.091Z,900.00
2018-09-20T08:35:58.059Z,912.00
2018-09-20T08:36:58.086Z,928.00
2018-09-20T08:37:58.018Z,940.00
2018-09-20T08:38:57.988Z,964.00
2018-09-20T08:39:57.965Z,960.00
2018-09-20T08:40:57.943Z,964.00
2018-09-20T08:41:57.922Z,972.00
2018-09-20T08:42:57.896Z,980.00
2018-09-20T08:43:57.868Z,988.00
2018-09-20T08:44:57.847Z,988.00
2018-09-20T08:45:57.822Z,996.00
2018-09-20T08:46:57.794Z,996.00
2018-09-20T08:47:57.766Z,1004.00
2018-09-20T08:48:57.770Z,1016.00
2018-09-20T08:49:57.726Z,1004.00
2018-09-20T08:50:57.708Z,1008.00
2018-09-20T08:51:57.675Z,1032.00
2018-09-20T08:52:57.645Z,1008.00
2018-09-20T08:53:57.625Z,1008.00
2018-09-20T08:54:57.602Z,1008.00
2018-09-20T08:55:57.571Z,1008.00
2018-09-20T08:56:57.620Z,1004.00
2018-09-20T08:57:57.523Z,1004.00
2018-09-20T08:58:57.506Z,1008.00
2018-09-20T08:59:57.483Z,1016.00
2018-09-20T09:00:57.453Z,1028.00
2018-09-20T09:01:57.433Z,1044.00
2018-09-20T09:02:57.399Z,1060.00
2018-09-20T09:03:57.382Z,1076.00
2018-09-20T09:04:57.356Z,1088.00
2018-09-20T09:05:57.328Z,1092.00
2018-09-20T09:06:57.309Z,1096.00
2018-09-20T09:07:57.285Z,1164.00
2018-09-20T09:08:57.257Z,1136.00
2018-09-20T09:09:57.237Z,1132.00
2018-09-20T09:10:57.208Z,1148.00
2018-09-20T09:11:57.223Z,1140.00
2018-09-20T09:12:57.161Z,1176.00
2018-09-20T09:13:57.135Z,1184.00
2018-09-20T09:14:57.121Z,1192.00
2018-09-20T09:15:57.087Z,1192.00
2018-09-20T09:16:57.069Z,1180.00
2018-09-20T09:17:57.040Z,1180.00
2018-09-20T09:18:57.017Z,1196.00
2018-09-20T09:19:56.988Z,1184.00
2018-09-20T09:20:56.968Z,1188.00
2018-09-20T09:21:56.940Z,1184.00
2018-09-20T09:22:56.923Z,1224.00
2018-09-20T09:23:56.900Z,1268.00
2018-09-20T09:24:56.865Z,1304.00
2018-09-20T09:25:56.842Z,1340.00
2018-09-20T09:26:56.822Z,1352.00
2018-09-20T09:27:56.801Z,1380.00
2018-09-20T09:28:56.770Z,1420.00
2018-09-20T09:29:56.752Z,1476.00
2018-09-20T09:30:56.722Z,1464.00
2018-09-20T09:31:56.699Z,1456.00
2018-09-20T09:32:56.679Z,1452.00
2018-09-20T09:33:56.653Z,1468.00
2018-09-20T09:34:56.628Z,1464.00
2018-09-20T09:35:56.606Z,1476.00
2018-09-20T09:36:56.585Z,1468.00
2018-09-20T09:37:56.629Z,1484.00
2018-09-20T09:38:56.865Z,1488.00
2018-09-20T09:39:57.035Z,1488.00
2018-09-20T09:40:56.822Z,1512.00
2018-09-20T09:41:57.013Z,1536.00
2018-09-20T09:42:56.780Z,1560.00
2018-09-20T09:43:56.765Z,1592.00
2018-09-20T09:44:57.054Z,1656.00
2018-09-20T09:45:57.109Z,1672.00
2018-09-20T09:46:56.341Z,1688.00
2018-09-20T09:47:56.363Z,1708.00
2018-09-20T09:48:56.296Z,1688.00
2018-09-20T09:49:56.263Z,1664.00
2018-09-20T09:50:56.247Z,1624.00
2018-09-20T09:51:56.225Z,1600.00
2018-09-20T09:52:56.196Z,1544.00
2018-09-20T09:53:56.164Z,1564.00
2018-09-20T09:54:56.191Z,1632.00
2018-09-20T09:55:56.129Z,1736.00
2018-09-20T09:56:56.094Z,1992.00
2018-09-20T09:57:56.079Z,2056.00
2018-09-20T09:58:56.051Z,2000.00
2018-09-20T09:59:56.140Z,2056.00
2018-09-20T10:00:55.998Z,2312.00
2018-09-20T10:01:55.976Z,2776.00
2018-09-20T10:02:55.959Z,2440.00
2018-09-20T10:03:55.927Z,2292.00
2018-09-20T10:04:55.912Z,2300.00
2018-09-20T10:05:55.883Z,2312.00
2018-09-20T10:06:55.860Z,2008.00
2018-09-20T10:07:55.836Z,2140.00
2018-09-20T10:08:55.809Z,2096.00
2018-09-20T10:09:55.809Z,1976.00
2018-09-20T10:10:55.765Z,2116.00
2018-09-20T10:11:55.785Z,2272.00
2018-09-20T10:12:55.716Z,2624.00
2018-09-20T10:13:55.714Z,2516.00
2018-09-20T10:14:55.675Z,2204.00
2018-09-20T10:15:55.649Z,2032.00
2018-09-20T10:16:55.619Z,2064.00
2018-09-20T10:17:55.601Z,2056.00
2018-09-20T10:18:55.574Z,2172.00
2018-09-20T10:19:55.606Z,2440.00
2018-09-20T10:20:55.535Z,2568.00
2018-09-20T10:21:55.507Z,2756.00
2018-09-20T10:22:55.476Z,2716.00
2018-09-20T10:23:55.470Z,3168.00
2018-09-20T10:24:55.425Z,3092.00
2018-09-20T10:25:55.407Z,3100.00
2018-09-20T10:26:55.388Z,2748.00
2018-09-20T10:27:55.390Z,2720.00
2018-09-20T10:28:55.341Z,3196.00
2018-09-20T10:29:55.318Z,3280.00
2018-09-20T10:30:55.377Z,2968.00
2018-09-20T10:31:55.268Z,3096.00
2018-09-20T10:32:55.236Z,3032.00
2018-09-20T10:33:55.268Z,2952.00
2018-09-20T10:34:55.198Z,2984.00
2018-09-20T10:35:55.169Z,3204.00
2018-09-20T10:36:55.151Z,2884.00
2018-09-20T10:37:55.125Z,2456.00
2018-09-20T10:38:55.098Z,3352.00
2018-09-20T10:39:55.075Z,2816.00
2018-09-20T10:40:55.057Z,2472.00
2018-09-20T10:41:55.031Z,2508.00
2018-09-20T10:42:55.006Z,2860.00
2018-09-20T10:43:54.990Z,2656.00
2018-09-20T10:44:54.952Z,2780.00
2018-09-20T10:45:54.928Z,2764.00
2018-09-20T10:46:54.918Z,2836.00
2018-09-20T10:47:54.883Z,3096.00
2018-09-20T10:48:54.868Z,3380.00
2018-09-20T10:49:54.842Z,3460.00
2018-09-20T10:50:54.814Z,3448.00
2018-09-20T10:51:54.796Z,3412.00
2018-09-20T10:52:54.767Z,3344.00
2018-09-20T10:53:54.752Z,3308.00
2018-09-20T10:54:54.726Z,3388.00
2018-09-20T10:55:54.700Z,3240.00
2018-09-20T10:56:54.674Z,3204.00
2018-09-20T10:57:54.652Z,3168.00
2018-09-20T10:58:54.634Z,3084.00
2018-09-20T10:59:54.608Z,2984.00
2018-09-20T11:00:54.581Z,2916.00
2018-09-20T11:01:54.562Z,2712.00
2018-09-20T11:02:54.551Z,2564.00
2018-09-20T11:03:54.508Z,2376.00
2018-09-20T11:04:54.491Z,2136.00
2018-09-20T11:05:54.458Z,2132.00
2018-09-20T11:06:54.441Z,1960.00
2018-09-20T11:07:54.414Z,1952.00
2018-09-20T11:08:54.392Z,2136.00
2018-09-20T11:09:54.369Z,2284.00
2018-09-20T11:10:54.361Z,2332.00
2018-09-20T11:11:54.323Z,2892.00
2018-09-20T11:12:54.296Z,2264.00
2018-09-20T11:13:54.270Z,2048.00
2018-09-20T11:14:54.255Z,1952.00
2018-09-20T11:15:54.227Z,2032.00
2018-09-20T11:16:54.204Z,1948.00
2018-09-20T11:17:54.177Z,1980.00
2018-09-20T11:18:54.163Z,2028.00
2018-09-20T11:19:54.129Z,2064.00
2018-09-20T11:20:54.117Z,1940.00
2018-09-20T11:21:54.092Z,1896.00
2018-09-20T11:22:54.059Z,2008.00
2018-09-20T11:23:54.043Z,2136.00
2018-09-20T11:24:54.011Z,2148.00
2018-09-20T11:25:54.056Z,2148.00
2018-09-20T11:26:53.965Z,2004.00
2018-09-20T11:27:53.950Z,1844.00
2018-09-20T11:28:53.921Z,2084.00
2018-09-20T11:29:53.896Z,2104.00
2018-09-20T11:30:53.880Z,2360.00
2018-09-20T11:31:53.847Z,2504.00
2018-09-20T11:32:53.832Z,2332.00
2018-09-20T11:33:53.813Z,1840.00
2018-09-20T11:34:53.779Z,1572.00
2018-09-20T11:35:53.755Z,1600.00
2018-09-20T11:36:53.736Z,1608.00
2018-09-20T11:37:53.721Z,1664.00
2018-09-20T11:38:53.690Z,1580.00
2018-09-20T11:39:53.663Z,1544.00
2018-09-20T11:40:53.640Z,1484.00
2018-09-20T11:41:53.612Z,1364.00
2018-09-20T11:42:53.594Z,1368.00
2018-09-20T11:43:53.568Z,1340.00
2018-09-20T11:44:53.566Z,1284.00
2018-09-20T11:45:53.519Z,1272.00
2018-09-20T11:46:53.492Z,1264.00
2018-09-20T11:47:53.474Z,1480.00
2018-09-20T11:48:53.451Z,1720.00
2018-09-20T11:49:53.428Z,1792.00
2018-09-20T11:50:53.401Z,1736.00
2018-09-20T11:51:53.377Z,1516.00
2018-09-20T11:52:53.362Z,1500.00
2018-09-20T11:53:53.330Z,1564.00
2018-09-20T11:54:53.317Z,1616.00
2018-09-20T11:55:53.290Z,1616.00
2018-09-20T11:56:53.259Z,1580.00
2018-09-20T11:57:53.239Z,1460.00
2018-09-20T11:58:53.217Z,1604.00
2018-09-20T11:59:53.188Z,1676.00
2018-09-20T12:00:53.166Z,1904.00
2018-09-20T12:01:53.206Z,2212.00
2018-09-20T12:02:53.121Z,2180.00
2018-09-20T12:03:53.093Z,2400.00
2018-09-20T12:04:53.080Z,2604.00
2018-09-20T12:05:53.058Z,2552.00
2018-09-20T12:06:53.023Z,2732.00
2018-09-20T12:07:53.007Z,2612.00
2018-09-20T12:08:52.978Z,2436.00
2018-09-20T12:09:52.957Z,2536.00
2018-09-20T12:10:52.944Z,2448.00
2018-09-20T12:11:52.912Z,2348.00
2018-09-20T12:12:52.893Z,2200.00
2018-09-20T12:13:52.863Z,2060.00
2018-09-20T12:14:52.843Z,1968.00
2018-09-20T12:15:52.817Z,1848.00
2018-09-20T12:16:52.797Z,1744.00
2018-09-20T12:17:52.768Z,1696.00
2018-09-20T12:18:52.753Z,1684.00
2018-09-20T12:19:52.764Z,1672.00
2018-09-20T12:20:52.698Z,1656.00
2018-09-20T12:21:52.673Z,1576.00
2018-09-20T12:22:52.655Z,1424.00
2018-09-20T12:23:52.626Z,1512.00
2018-09-20T12:24:52.616Z,1540.00
2018-09-20T12:25:52.604Z,1568.00
2018-09-20T12:26:52.557Z,1588.00
2018-09-20T12:27:52.541Z,1556.00
2018-09-20T12:28:52.508Z,1556.00
2018-09-20T12:29:52.495Z,1532.00
2018-09-20T12:30:52.462Z,1580.00
2018-09-20T12:31:52.518Z,1624.00
2018-09-20T12:32:52.440Z,1608.00
2018-09-20T12:33:52.396Z,1696.00
2018-09-20T12:34:52.378Z,1604.00
2018-09-20T12:35:52.400Z,1576.00
2018-09-20T12:36:52.329Z,1568.00
2018-09-20T12:37:52.307Z,1548.00
2018-09-20T12:38:52.336Z,1564.00